createdAt,value
2022-12-16T00:00:33.151Z,1006.97
2022-12-16T00:01:33.209Z,1006.98
2022-12-16T00:02:33.310Z,1006.95
2022-12-16T00:03:33.594Z,1006.99
2022-12-16T00:04:33.087Z,1007.05
2022-12-16T00:05:33.056Z,1007.09
2022-12-16T00:06:33.049Z,1007.08
2022-12-16T00:07:33.036Z,1007.10
2022-12-16T00:08:33.025Z,1007.08
2022-12-16T00:09:33.015Z,1007.10
2022-12-16T00:10:33.041Z,1007.11
2022-12-16T00:11:32.998Z,1007.18
2022-12-16T00:12:33.048Z,1007.12
2022-12-16T00:13:33.506Z,1007.08
2022-12-16T00:14:33.015Z,1007.13
2022-12-16T00:15:32.956Z,1007.10
2022-12-16T00:16:33.039Z,1007.08
2022-12-16T00:17:32.933Z,1007.11
2022-12-16T00:18:32.923Z,1007.12
2022-12-16T00:19:32.912Z,1007.08
2022-12-16T00:20:32.920Z,1007.09
2022-12-16T00:21:32.886Z,1007.16
2022-12-16T00:22:32.885Z,1007.17
2022-12-16T00:23:33.377Z,1007.17
2022-12-16T00:24:32.871Z,1007.10
2022-12-16T00:25:32.867Z,1007.18
2022-12-16T00:26:32.878Z,1007.16
2022-12-16T00:27:32.842Z,1007.15
2022-12-16T00:28:32.834Z,1007.15
2022-12-16T00:29:32.823Z,1007.25
2022-12-16T00:30:32.827Z,1007.19
2022-12-16T00:31:32.984Z,1007.17
2022-12-16T00:32:32.793Z,1007.20
2022-12-16T00:33:33.220Z,1007.22
2022-12-16T00:34:32.768Z,1007.18
2022-12-16T00:35:32.769Z,1007.24
2022-12-16T00:36:32.744Z,1007.20
2022-12-16T00:37:32.733Z,1007.23
2022-12-16T00:38:32.730Z,1007.23
2022-12-16T00:39:32.730Z,1007.23
2022-12-16T00:40:32.699Z,1007.21
2022-12-16T00:41:32.703Z,1007.16
2022-12-16T00:42:32.685Z,1007.23
2022-12-16T00:43:33.440Z,1007.22
2022-12-16T00:44:32.676Z,1007.24
2022-12-16T00:45:32.690Z,1007.26
2022-12-16T00:46:32.674Z,1007.29
2022-12-16T00:47:32.652Z,1007.27
2022-12-16T00:48:32.629Z,1007.26
2022-12-16T00:49:41.617Z,1007.28
2022-12-16T00:50:40.137Z,1007.29
2022-12-16T00:51:32.598Z,1007.28
2022-12-16T00:52:32.597Z,1007.29
2022-12-16T00:53:33.129Z,1007.27
2022-12-16T00:54:32.589Z,1007.24
2022-12-16T00:55:32.572Z,1007.30
2022-12-16T00:56:32.543Z,1007.37
2022-12-16T00:57:32.532Z,1007.36
2022-12-16T00:58:32.569Z,1007.40
2022-12-16T00:59:32.534Z,1007.41
2022-12-16T01:00:32.503Z,1007.43
2022-12-16T01:01:32.587Z,1007.35
2022-12-16T01:02:32.700Z,1007.36
2022-12-16T01:03:32.601Z,1007.33
2022-12-16T01:04:32.465Z,1007.37
2022-12-16T01:05:32.460Z,1007.44
2022-12-16T01:06:32.447Z,1007.33
2022-12-16T01:07:32.426Z,1007.34
2022-12-16T01:08:32.428Z,1007.36
2022-12-16T01:09:32.429Z,1007.36
2022-12-16T01:10:32.413Z,1007.29
2022-12-16T01:11:32.399Z,1007.37
2022-12-16T01:12:32.409Z,1007.36
2022-12-16T01:13:32.752Z,1007.33
2022-12-16T01:14:32.364Z,1007.35
2022-12-16T01:15:32.378Z,1007.38
2022-12-16T01:16:32.420Z,1007.42
2022-12-16T01:17:32.333Z,1007.48
2022-12-16T01:18:32.338Z,1007.44
2022-12-16T01:19:32.306Z,1007.41
2022-12-16T01:20:32.308Z,1007.41
2022-12-16T01:21:32.324Z,1007.44
2022-12-16T01:22:32.282Z,1007.40
2022-12-16T01:23:32.711Z,1007.42
2022-12-16T01:24:32.263Z,1007.39
2022-12-16T01:25:32.251Z,1007.41
2022-12-16T01:26:32.245Z,1007.44
2022-12-16T01:27:32.234Z,1007.48
2022-12-16T01:28:32.258Z,1007.46
2022-12-16T01:29:32.223Z,1007.50
2022-12-16T01:30:32.204Z,1007.45
2022-12-16T01:31:32.216Z,1007.43
2022-12-16T01:32:32.181Z,1007.36
2022-12-16T01:33:32.678Z,1007.45
2022-12-16T01:34:32.176Z,1007.43
2022-12-16T01:36:01.220Z,1007.40
2022-12-16T01:36:33.142Z,1007.42
2022-12-16T01:37:32.131Z,1007.40
2022-12-16T01:38:32.123Z,1007.38
2022-12-16T01:39:32.124Z,1007.31
2022-12-16T01:40:32.116Z,1007.34
2022-12-16T01:41:32.096Z,1007.35
2022-12-16T01:42:32.074Z,1007.33
2022-12-16T01:43:32.541Z,1007.31
2022-12-16T01:44:32.067Z,1007.28
2022-12-16T01:45:32.115Z,1007.29
2022-12-16T01:46:32.060Z,1007.26
2022-12-16T01:47:32.026Z,1007.26
2022-12-16T01:48:32.016Z,1007.27
2022-12-16T01:49:32.004Z,1007.19
2022-12-16T01:50:32.020Z,1007.28
2022-12-16T01:51:31.998Z,1007.30
2022-12-16T01:52:31.985Z,1007.29
2022-12-16T01:53:32.439Z,1007.32
2022-12-16T01:54:31.974Z,1007.31
2022-12-16T01:55:31.956Z,1007.33
2022-12-16T01:56:31.950Z,1007.33
2022-12-16T01:57:31.929Z,1007.31
2022-12-16T01:58:31.918Z,1007.32
2022-12-16T01:59:31.915Z,1007.33
2022-12-16T02:00:31.904Z,1007.29
2022-12-16T02:01:32.114Z,1007.31
2022-12-16T02:02:32.015Z,1007.26
2022-12-16T02:03:32.393Z,1007.32
2022-12-16T02:04:31.871Z,1007.28
2022-12-16T02:05:31.873Z,1007.26
2022-12-16T02:06:31.911Z,1007.21
2022-12-16T02:07:31.834Z,1007.18
2022-12-16T02:08:31.827Z,1007.21
2022-12-16T02:09:31.811Z,1007.26
2022-12-16T02:10:31.805Z,1007.21
2022-12-16T02:11:31.801Z,1007.28
2022-12-16T02:12:31.787Z,1007.30
2022-12-16T02:13:32.154Z,1007.27
2022-12-16T02:14:31.763Z,1007.28
2022-12-16T02:15:31.752Z,1007.29
2022-12-16T02:16:31.798Z,1007.25
2022-12-16T02:17:31.734Z,1007.26
2022-12-16T02:18:31.721Z,1007.29
2022-12-16T02:19:31.720Z,1007.27
2022-12-16T02:20:31.796Z,1007.23
2022-12-16T02:21:31.689Z,1007.23
2022-12-16T02:22:31.709Z,1007.21
2022-12-16T02:23:32.033Z,1007.24
2022-12-16T02:24:31.671Z,1007.25
2022-12-16T02:25:31.655Z,1007.27
2022-12-16T02:26:31.646Z,1007.27
2022-12-16T02:27:31.632Z,1007.31
2022-12-16T02:28:31.620Z,1007.28
2022-12-16T02:29:31.624Z,1007.20
2022-12-16T02:30:31.711Z,1007.21
2022-12-16T02:31:31.598Z,1007.25
2022-12-16T02:32:31.579Z,1007.30
2022-12-16T02:33:31.889Z,1007.24
2022-12-16T02:34:31.566Z,1007.32
2022-12-16T02:35:31.560Z,1007.26
2022-12-16T02:36:31.549Z,1007.29
2022-12-16T02:37:31.533Z,1007.27
2022-12-16T02:38:33.056Z,1007.28
2022-12-16T02:39:31.504Z,1007.27
2022-12-16T02:40:31.722Z,1007.27
2022-12-16T02:41:31.494Z,1007.29
2022-12-16T02:42:31.474Z,1007.38
2022-12-16T02:43:31.963Z,1007.35
2022-12-16T02:44:31.478Z,1007.33
2022-12-16T02:45:31.543Z,1007.28
2022-12-16T02:46:31.448Z,1007.20
2022-12-16T02:47:31.471Z,1007.21
2022-12-16T02:48:31.416Z,1007.26
2022-12-16T02:49:31.423Z,1007.20
2022-12-16T02:50:31.399Z,1007.24
2022-12-16T02:51:31.393Z,1007.28
2022-12-16T02:52:31.395Z,1007.26
2022-12-16T02:53:31.731Z,1007.24
2022-12-16T02:54:31.379Z,1007.26
2022-12-16T02:55:38.898Z,1007.25
2022-12-16T02:56:31.360Z,1007.27
2022-12-16T02:57:32.097Z,1007.20
2022-12-16T02:58:31.314Z,1007.22
2022-12-16T02:59:31.308Z,1007.16
2022-12-16T03:00:31.295Z,1007.13
2022-12-16T03:01:32.287Z,1007.13
2022-12-16T03:02:31.448Z,1007.12
2022-12-16T03:03:31.755Z,1007.10
2022-12-16T03:04:31.279Z,1007.08
2022-12-16T03:05:31.279Z,1007.08
2022-12-16T03:06:31.238Z,1007.10
2022-12-16T03:07:31.246Z,1007.13
2022-12-16T03:08:31.226Z,1007.09
2022-12-16T03:09:31.207Z,1007.10
2022-12-16T03:10:31.227Z,1007.07
2022-12-16T03:11:31.211Z,1007.11
2022-12-16T03:12:31.176Z,1007.11
2022-12-16T03:13:31.664Z,1007.12
2022-12-16T03:14:31.168Z,1007.09
2022-12-16T03:15:31.150Z,1007.12
2022-12-16T03:16:31.194Z,1007.12
2022-12-16T03:17:31.387Z,1007.11
2022-12-16T03:18:31.118Z,1007.14
2022-12-16T03:19:31.126Z,1007.13
2022-12-16T03:20:31.113Z,1007.11
2022-12-16T03:21:31.085Z,1007.14
2022-12-16T03:22:31.082Z,1007.18
2022-12-16T03:23:31.557Z,1007.15
2022-12-16T03:24:31.063Z,1007.15
2022-12-16T03:25:31.053Z,1007.16
2022-12-16T03:26:31.060Z,1007.14
2022-12-16T03:27:31.027Z,1007.18
2022-12-16T03:28:31.024Z,1007.21
2022-12-16T03:29:31.023Z,1007.22
2022-12-16T03:30:31.058Z,1007.18
2022-12-16T03:31:30.993Z,1007.19
2022-12-16T03:32:30.997Z,1007.20
2022-12-16T03:33:31.403Z,1007.11
2022-12-16T03:34:30.962Z,1007.13
2022-12-16T03:35:31.168Z,1007.19
2022-12-16T03:36:30.961Z,1007.12
2022-12-16T03:37:30.924Z,1007.10
2022-12-16T03:38:30.923Z,1007.17
2022-12-16T03:39:30.913Z,1007.03
2022-12-16T03:40:30.929Z,1007.07
2022-12-16T03:41:30.893Z,1007.06
2022-12-16T03:42:30.905Z,1007.01
2022-12-16T03:43:31.357Z,1007.04
2022-12-16T03:44:30.873Z,1007.02
2022-12-16T03:45:30.859Z,1007.11
2022-12-16T03:46:30.923Z,1007.02
2022-12-16T03:47:30.853Z,1007.10
2022-12-16T03:48:30.821Z,1007.05
2022-12-16T03:49:30.813Z,1007.03
2022-12-16T03:50:30.814Z,1007.08
2022-12-16T03:51:30.812Z,1007.06
2022-12-16T03:52:30.783Z,1007.06
2022-12-16T03:53:31.218Z,1006.99
2022-12-16T03:54:30.780Z,1007.00
2022-12-16T03:55:30.757Z,1007.01
2022-12-16T03:56:30.770Z,1006.94
2022-12-16T03:57:30.738Z,1006.99
2022-12-16T03:58:30.743Z,1007.01
2022-12-16T03:59:30.710Z,1006.98
2022-12-16T04:00:30.706Z,1007.00
2022-12-16T04:01:30.874Z,1006.98
2022-12-16T04:02:30.900Z,1007.02
2022-12-16T04:03:31.080Z,1007.01
2022-12-16T04:04:30.966Z,1007.02
2022-12-16T04:05:30.659Z,1007.04
2022-12-16T04:06:30.644Z,1007.00
2022-12-16T04:07:30.653Z,1007.07
2022-12-16T04:08:30.631Z,1007.05
2022-12-16T04:09:30.630Z,1007.03
2022-12-16T04:10:30.608Z,1007.08
2022-12-16T04:11:30.606Z,1007.10
2022-12-16T04:12:30.596Z,1007.09
2022-12-16T04:13:30.945Z,1007.08
2022-12-16T04:14:30.725Z,1007.05
2022-12-16T04:15:30.611Z,1007.06
2022-12-16T04:16:30.601Z,1007.10
2022-12-16T04:17:30.534Z,1007.06
2022-12-16T04:18:31.085Z,1007.04
2022-12-16T04:19:30.518Z,1007.07
2022-12-16T04:20:30.505Z,1007.06
2022-12-16T04:21:30.493Z,1007.06
2022-12-16T04:22:30.495Z,1007.08
2022-12-16T04:23:30.857Z,1007.04
2022-12-16T04:24:30.463Z,1007.20
2022-12-16T04:25:30.445Z,1007.16
2022-12-16T04:26:30.442Z,1007.13
2022-12-16T04:27:30.434Z,1007.15
2022-12-16T04:28:30.449Z,1007.13
2022-12-16T04:29:30.413Z,1007.19
2022-12-16T04:30:30.447Z,1007.15
2022-12-16T04:31:30.448Z,1007.20
2022-12-16T04:32:30.410Z,1007.17
2022-12-16T04:33:30.779Z,1007.20
2022-12-16T04:34:30.395Z,1007.22
2022-12-16T04:35:30.355Z,1007.17
2022-12-16T04:36:30.340Z,1007.18
2022-12-16T04:37:30.374Z,1007.23
2022-12-16T04:38:30.330Z,1007.29
2022-12-16T04:39:30.324Z,1007.26
2022-12-16T04:40:30.370Z,1007.24
2022-12-16T04:41:30.299Z,1007.26
2022-12-16T04:42:30.295Z,1007.22
2022-12-16T04:43:30.638Z,1007.24
2022-12-16T04:44:30.319Z,1007.24
2022-12-16T04:45:30.350Z,1007.26
2022-12-16T04:46:30.306Z,1007.24
2022-12-16T04:47:30.229Z,1007.27
2022-12-16T04:48:30.229Z,1007.34
2022-12-16T04:49:30.211Z,1007.36
2022-12-16T04:50:30.231Z,1007.32
2022-12-16T04:51:30.186Z,1007.41
2022-12-16T04:52:30.187Z,1007.36
2022-12-16T04:53:30.624Z,1007.45
2022-12-16T04:54:30.162Z,1007.42
2022-12-16T04:55:30.172Z,1007.48
2022-12-16T04:56:30.334Z,1007.51
2022-12-16T04:57:30.134Z,1007.52
2022-12-16T04:58:30.122Z,1007.49
2022-12-16T04:59:30.107Z,1007.54
2022-12-16T05:00:30.107Z,1007.49
2022-12-16T05:01:30.208Z,1007.52
2022-12-16T05:02:30.366Z,1007.46
2022-12-16T05:03:30.617Z,1007.48
2022-12-16T05:04:30.080Z,1007.48
2022-12-16T05:05:30.048Z,1007.50
2022-12-16T05:06:30.061Z,1007.39
2022-12-16T05:07:33.350Z,1007.49
2022-12-16T05:08:31.040Z,1007.39
2022-12-16T05:09:30.031Z,1007.42
2022-12-16T05:10:30.010Z,1007.41
2022-12-16T05:11:29.992Z,1007.42
2022-12-16T05:12:29.991Z,1007.39
2022-12-16T05:13:30.285Z,1007.36
2022-12-16T05:14:29.987Z,1007.41
2022-12-16T05:15:29.947Z,1007.40
2022-12-16T05:16:30.040Z,1007.43
2022-12-16T05:17:29.939Z,1007.49
2022-12-16T05:18:30.066Z,1007.48
2022-12-16T05:19:31.752Z,1007.52
2022-12-16T05:20:29.917Z,1007.54
2022-12-16T05:21:29.891Z,1007.56
2022-12-16T05:22:29.906Z,1007.62
2022-12-16T05:23:30.376Z,1007.59
2022-12-16T05:24:29.935Z,1007.62
2022-12-16T05:25:29.865Z,1007.64
2022-12-16T05:26:29.840Z,1007.66
2022-12-16T05:27:29.833Z,1007.67
2022-12-16T05:28:29.847Z,1007.61
2022-12-16T05:29:29.818Z,1007.66
2022-12-16T05:30:33.671Z,1007.67
2022-12-16T05:31:29.973Z,1007.70
2022-12-16T05:32:29.792Z,1007.63
2022-12-16T05:33:30.100Z,1007.61
2022-12-16T05:34:29.776Z,1007.63
2022-12-16T05:35:29.770Z,1007.66
2022-12-16T05:36:29.762Z,1007.70
2022-12-16T05:37:29.728Z,1007.59
2022-12-16T05:38:29.728Z,1007.67
2022-12-16T05:39:29.719Z,1007.73
2022-12-16T05:40:29.699Z,1007.72
2022-12-16T05:41:29.811Z,1007.69
2022-12-16T05:42:29.690Z,1007.76
2022-12-16T05:43:29.967Z,1007.68
2022-12-16T05:44:29.681Z,1007.64
2022-12-16T05:45:29.657Z,1007.72
2022-12-16T05:46:29.776Z,1007.68
2022-12-16T05:47:29.677Z,1007.75
2022-12-16T05:48:29.643Z,1007.73
2022-12-16T05:49:29.613Z,1007.78
2022-12-16T05:50:29.748Z,1007.74
2022-12-16T05:51:29.616Z,1007.73
2022-12-16T05:52:29.615Z,1007.76
2022-12-16T05:53:29.837Z,1007.78
2022-12-16T05:54:29.580Z,1007.82
2022-12-16T05:55:33.866Z,1007.77
2022-12-16T05:56:29.543Z,1007.82
2022-12-16T05:57:29.535Z,1007.84
2022-12-16T05:58:29.537Z,1007.89
2022-12-16T05:59:29.509Z,1007.90
2022-12-16T06:00:29.503Z,1007.93
2022-12-16T06:01:29.564Z,1007.94
2022-12-16T06:02:29.607Z,1007.89
2022-12-16T06:03:29.633Z,1007.90
2022-12-16T06:04:29.468Z,1007.96
2022-12-16T06:05:29.450Z,1007.98
2022-12-16T06:06:29.478Z,1007.95
2022-12-16T06:07:29.436Z,1007.96
2022-12-16T06:08:29.430Z,1008.01
2022-12-16T06:09:29.461Z,1008.03
2022-12-16T06:10:29.415Z,1008.07
2022-12-16T06:11:29.400Z,1008.07
2022-12-16T06:12:29.382Z,1008.10
2022-12-16T06:13:29.629Z,1008.18
2022-12-16T06:14:29.363Z,1008.13
2022-12-16T06:15:29.375Z,1008.13
2022-12-16T06:16:29.412Z,1008.16
2022-12-16T06:17:29.343Z,1008.14
2022-12-16T06:18:29.323Z,1008.16
2022-12-16T06:19:29.318Z,1008.23
2022-12-16T06:20:29.308Z,1008.17
2022-12-16T06:21:29.318Z,1008.25
2022-12-16T06:22:29.369Z,1008.27
2022-12-16T06:23:29.279Z,1008.29
2022-12-16T06:24:29.262Z,1008.31
2022-12-16T06:25:29.249Z,1008.33
2022-12-16T06:26:29.258Z,1008.37
2022-12-16T06:27:29.266Z,1008.43
2022-12-16T06:28:29.219Z,1008.44
2022-12-16T06:29:29.218Z,1008.42
2022-12-16T06:30:29.201Z,1008.40
2022-12-16T06:31:29.290Z,1008.53
2022-12-16T06:32:29.200Z,1008.54
2022-12-16T06:33:29.411Z,1008.55
2022-12-16T06:34:29.170Z,1008.58
2022-12-16T06:35:29.163Z,1008.54
2022-12-16T06:36:29.156Z,1008.53
2022-12-16T06:37:29.131Z,1008.51
2022-12-16T06:38:29.190Z,1008.56
2022-12-16T06:39:29.129Z,1008.51
2022-12-16T06:40:29.122Z,1008.55
2022-12-16T06:41:29.106Z,1008.56
2022-12-16T06:42:29.111Z,1008.52
2022-12-16T06:43:29.281Z,1008.55
2022-12-16T06:44:29.073Z,1008.57
2022-12-16T06:45:34.474Z,1008.59
2022-12-16T06:46:30.154Z,1008.52
2022-12-16T06:47:29.092Z,1008.54
2022-12-16T06:48:29.042Z,1008.55
2022-12-16T06:49:29.027Z,1008.55
2022-12-16T06:50:29.045Z,1008.53
2022-12-16T06:51:28.998Z,1008.56
2022-12-16T06:52:28.988Z,1008.47
2022-12-16T06:53:29.124Z,1008.62
2022-12-16T06:54:28.984Z,1008.59
2022-12-16T06:55:28.953Z,1008.62
2022-12-16T06:56:28.953Z,1008.52
2022-12-16T06:57:28.930Z,1008.61
2022-12-16T06:58:28.947Z,1008.63
2022-12-16T06:59:28.921Z,1008.65
2022-12-16T07:00:28.938Z,1008.70
2022-12-16T07:01:28.997Z,1008.67
2022-12-16T07:02:29.020Z,1008.70
2022-12-16T07:03:34.070Z,1008.73
2022-12-16T07:04:29.912Z,1008.79
2022-12-16T07:05:28.850Z,1008.78
2022-12-16T07:06:28.876Z,1008.81
2022-12-16T07:07:29.851Z,1008.86
2022-12-16T07:08:28.829Z,1008.82
2022-12-16T07:09:28.819Z,1008.88
2022-12-16T07:10:28.842Z,1008.85
2022-12-16T07:11:28.812Z,1008.85
2022-12-16T07:12:28.794Z,1008.90
2022-12-16T07:13:28.987Z,1008.90
2022-12-16T07:14:28.774Z,1008.93
2022-12-16T07:15:28.754Z,1008.91
2022-12-16T07:16:28.889Z,1008.96
2022-12-16T07:17:28.732Z,1009.00
2022-12-16T07:18:28.730Z,1008.99
2022-12-16T07:19:28.721Z,1008.97
2022-12-16T07:20:28.794Z,1009.06
2022-12-16T07:21:28.698Z,1009.15
2022-12-16T07:22:28.689Z,1009.11
2022-12-16T07:23:28.671Z,1009.11
2022-12-16T07:24:28.669Z,1009.12
2022-12-16T07:25:28.657Z,1009.12
2022-12-16T07:26:28.684Z,1009.14
2022-12-16T07:27:28.638Z,1009.15
2022-12-16T07:28:28.626Z,1009.26
2022-12-16T07:29:28.623Z,1009.28
2022-12-16T07:30:28.658Z,1009.26
2022-12-16T07:31:28.637Z,1009.31
2022-12-16T07:32:28.617Z,1009.30
2022-12-16T07:33:28.575Z,1009.28
2022-12-16T07:34:28.573Z,1009.39
2022-12-16T07:35:28.565Z,1009.40
2022-12-16T07:36:28.577Z,1009.34
2022-12-16T07:37:28.542Z,1009.39
2022-12-16T07:38:28.542Z,1009.45
2022-12-16T07:39:28.524Z,1009.42
2022-12-16T07:40:28.550Z,1009.46
2022-12-16T07:41:28.500Z,1009.52
2022-12-16T07:42:28.519Z,1009.50
2022-12-16T07:43:28.483Z,1009.49
2022-12-16T07:44:28.492Z,1009.54
2022-12-16T07:45:28.580Z,1009.54
2022-12-16T07:46:28.542Z,1009.57
2022-12-16T07:47:28.442Z,1009.54
2022-12-16T07:48:28.432Z,1009.58
2022-12-16T07:49:28.425Z,1009.58
2022-12-16T07:50:28.508Z,1009.62
2022-12-16T07:51:28.400Z,1009.60
2022-12-16T07:52:28.391Z,1009.65
2022-12-16T07:53:31.349Z,1009.66
2022-12-16T07:54:28.380Z,1009.72
2022-12-16T07:55:28.360Z,1009.73
2022-12-16T07:56:28.386Z,1009.60
2022-12-16T07:57:28.331Z,1009.76
2022-12-16T07:58:28.357Z,1009.72
2022-12-16T07:59:29.499Z,1009.76
2022-12-16T08:00:28.381Z,1009.74
2022-12-16T08:01:28.546Z,1009.79
2022-12-16T08:02:28.432Z,1009.75
2022-12-16T08:03:28.381Z,1009.75
2022-12-16T08:04:28.266Z,1009.77
2022-12-16T08:05:28.264Z,1009.74
2022-12-16T08:06:28.259Z,1009.72
2022-12-16T08:07:28.256Z,1009.76
2022-12-16T08:08:28.240Z,1009.74
2022-12-16T08:09:28.216Z,1009.75
2022-12-16T08:10:28.269Z,1009.79
2022-12-16T08:11:28.210Z,1009.76
2022-12-16T08:12:28.204Z,1009.82
2022-12-16T08:13:28.178Z,1009.78
2022-12-16T08:14:28.193Z,1009.88
2022-12-16T08:15:28.169Z,1009.82
2022-12-16T08:16:28.200Z,1009.87
2022-12-16T08:17:28.141Z,1009.94
2022-12-16T08:18:28.135Z,1009.94
2022-12-16T08:19:28.147Z,1009.91
2022-12-16T08:20:28.109Z,1009.91
2022-12-16T08:21:28.093Z,1010.02
2022-12-16T08:22:28.096Z,1009.95
2022-12-16T08:23:28.077Z,1010.00
2022-12-16T08:24:28.069Z,1010.02
2022-12-16T08:25:28.103Z,1010.06
2022-12-16T08:26:28.100Z,1009.97
2022-12-16T08:27:28.059Z,1010.06
2022-12-16T08:28:28.025Z,1010.07
2022-12-16T08:29:43.768Z,1010.07
2022-12-16T08:30:29.299Z,1010.11
2022-12-16T08:31:28.082Z,1010.19
2022-12-16T08:32:28.032Z,1010.14
2022-12-16T08:33:27.985Z,1010.18
2022-12-16T08:34:27.965Z,1010.16
2022-12-16T08:35:27.962Z,1010.22
2022-12-16T08:36:27.959Z,1010.24
2022-12-16T08:37:27.941Z,1010.22
2022-12-16T08:38:27.936Z,1010.21
2022-12-16T08:39:27.925Z,1010.12
2022-12-16T08:40:36.182Z,1010.20
2022-12-16T08:41:28.912Z,1010.20
2022-12-16T08:42:27.890Z,1010.25
2022-12-16T08:43:27.882Z,1010.20
2022-12-16T08:44:27.877Z,1010.19
2022-12-16T08:45:27.857Z,1010.18
2022-12-16T08:46:27.974Z,1010.15
2022-12-16T08:47:27.846Z,1010.22
2022-12-16T08:48:27.826Z,1010.18
2022-12-16T08:49:27.821Z,1010.26
2022-12-16T08:50:27.827Z,1010.21
2022-12-16T08:51:27.804Z,1010.25
2022-12-16T08:52:27.784Z,1010.26
2022-12-16T08:53:27.773Z,1010.30
2022-12-16T08:54:27.769Z,1010.27
2022-12-16T08:55:29.649Z,1010.30
2022-12-16T08:56:27.761Z,1010.29
2022-12-16T08:57:27.732Z,1010.21
2022-12-16T08:58:27.777Z,1010.24
2022-12-16T08:59:27.715Z,1010.25
2022-12-16T09:00:27.703Z,1010.27
2022-12-16T09:01:27.816Z,1010.32
2022-12-16T09:02:27.915Z,1010.26
2022-12-16T09:03:27.778Z,1010.25
2022-12-16T09:04:27.661Z,1010.28
2022-12-16T09:05:27.655Z,1010.29
2022-12-16T09:06:27.650Z,1010.24
2022-12-16T09:07:27.655Z,1010.26
2022-12-16T09:08:27.649Z,1010.24
2022-12-16T09:09:27.619Z,1010.23
2022-12-16T09:10:27.621Z,1010.26
2022-12-16T09:11:27.598Z,1010.30
2022-12-16T09:12:27.594Z,1010.30
2022-12-16T09:13:27.581Z,1010.35
2022-12-16T09:14:27.578Z,1010.34
2022-12-16T09:15:27.622Z,1010.35
2022-12-16T09:16:27.679Z,1010.37
2022-12-16T09:17:27.557Z,1010.35
2022-12-16T09:18:27.548Z,1010.35
2022-12-16T09:19:27.519Z,1010.33
2022-12-16T09:20:27.515Z,1010.33
2022-12-16T09:21:31.787Z,1010.31
2022-12-16T09:22:28.528Z,1010.32
2022-12-16T09:23:27.474Z,1010.35
2022-12-16T09:24:27.471Z,1010.32
2022-12-16T09:25:27.452Z,1010.34
2022-12-16T09:26:27.467Z,1010.33
2022-12-16T09:27:27.447Z,1010.37
2022-12-16T09:28:27.444Z,1010.34
2022-12-16T09:29:27.411Z,1010.46
2022-12-16T09:30:27.423Z,1010.44
2022-12-16T09:31:27.547Z,1010.43
2022-12-16T09:32:27.382Z,1010.48
2022-12-16T09:33:27.381Z,1010.51
2022-12-16T09:34:27.391Z,1010.49
2022-12-16T09:35:27.398Z,1010.52
2022-12-16T09:36:27.342Z,1010.51
2022-12-16T09:37:27.355Z,1010.60
2022-12-16T09:38:27.318Z,1010.53
2022-12-16T09:39:27.306Z,1010.58
2022-12-16T09:40:27.297Z,1010.62
2022-12-16T09:41:27.320Z,1010.57
2022-12-16T09:42:27.277Z,1010.57
2022-12-16T09:43:27.264Z,1010.57
2022-12-16T09:44:27.262Z,1010.51
2022-12-16T09:45:27.250Z,1010.45
2022-12-16T09:46:27.357Z,1010.47
2022-12-16T09:47:27.251Z,1010.50
2022-12-16T09:48:27.218Z,1010.51
2022-12-16T09:49:27.209Z,1010.53
2022-12-16T09:50:27.211Z,1010.56
2022-12-16T09:51:27.191Z,1010.55
2022-12-16T09:52:27.200Z,1010.49
2022-12-16T09:53:27.226Z,1010.51
2022-12-16T09:54:27.154Z,1010.51
2022-12-16T09:55:27.140Z,1010.50
2022-12-16T09:56:27.138Z,1010.46
2022-12-16T09:57:27.128Z,1010.49
2022-12-16T09:58:27.122Z,1010.53
2022-12-16T09:59:27.113Z,1010.51
2022-12-16T10:00:27.118Z,1010.52
2022-12-16T10:01:27.268Z,1010.48
2022-12-16T10:02:27.245Z,1010.52
2022-12-16T10:03:27.161Z,1010.57
2022-12-16T10:04:27.138Z,1010.55
2022-12-16T10:05:27.053Z,1010.51
2022-12-16T10:06:27.053Z,1010.59
2022-12-16T10:07:27.022Z,1010.55
2022-12-16T10:08:27.019Z,1010.57
2022-12-16T10:09:27.014Z,1010.62
2022-12-16T10:10:26.988Z,1010.61
2022-12-16T10:11:26.998Z,1010.60
2022-12-16T10:12:26.978Z,1010.62
2022-12-16T10:13:26.966Z,1010.60
2022-12-16T10:14:26.954Z,1010.60
2022-12-16T10:15:26.935Z,1010.56
2022-12-16T10:16:27.047Z,1010.54
2022-12-16T10:17:26.923Z,1010.61
2022-12-16T10:18:27.033Z,1010.52
2022-12-16T10:19:26.898Z,1010.45
2022-12-16T10:20:26.890Z,1010.50
2022-12-16T10:21:26.884Z,1010.51
2022-12-16T10:22:26.900Z,1010.50
2022-12-16T10:23:26.864Z,1010.49
2022-12-16T10:24:26.845Z,1010.46
2022-12-16T10:25:26.848Z,1010.46
2022-12-16T10:26:26.833Z,1010.43
2022-12-16T10:27:26.848Z,1010.45
2022-12-16T10:28:26.811Z,1010.50
2022-12-16T10:29:26.810Z,1010.45
2022-12-16T10:30:26.790Z,1010.51
2022-12-16T10:31:31.327Z,1010.42
2022-12-16T10:32:26.787Z,1010.44
2022-12-16T10:33:26.751Z,1010.48
2022-12-16T10:34:26.747Z,1010.51
2022-12-16T10:35:26.738Z,1010.53
2022-12-16T10:36:26.722Z,1010.42
2022-12-16T10:37:26.725Z,1010.53
2022-12-16T10:38:26.741Z,1010.57
2022-12-16T10:39:26.691Z,1010.56
2022-12-16T10:40:26.681Z,1010.58
2022-12-16T10:41:26.680Z,1010.59
2022-12-16T10:42:26.661Z,1010.53
2022-12-16T10:43:26.677Z,1010.56
2022-12-16T10:44:26.671Z,1010.56
2022-12-16T10:45:26.624Z,1010.59
2022-12-16T10:46:26.642Z,1010.59
2022-12-16T10:47:26.604Z,1010.63
2022-12-16T10:48:26.602Z,1010.69
2022-12-16T10:49:26.677Z,1010.67
2022-12-16T10:50:26.592Z,1010.69
2022-12-16T10:51:26.582Z,1010.67
2022-12-16T10:52:26.570Z,1010.72
2022-12-16T10:53:26.543Z,1010.70
2022-12-16T10:54:26.578Z,1010.76
2022-12-16T10:55:26.554Z,1010.77
2022-12-16T10:56:26.516Z,1010.75
2022-12-16T10:57:26.516Z,1010.76
2022-12-16T10:58:26.495Z,1010.76
2022-12-16T10:59:26.509Z,1010.76
2022-12-16T11:00:26.503Z,1010.77
2022-12-16T11:01:26.556Z,1010.74
2022-12-16T11:02:26.573Z,1010.75
2022-12-16T11:03:26.630Z,1010.78
2022-12-16T11:04:26.440Z,1010.73
2022-12-16T11:05:26.441Z,1010.77
2022-12-16T11:06:26.418Z,1010.76
2022-12-16T11:07:26.409Z,1010.75
2022-12-16T11:08:26.391Z,1010.70
2022-12-16T11:09:26.388Z,1010.73
2022-12-16T11:10:26.415Z,1010.73
2022-12-16T11:11:26.380Z,1010.79
2022-12-16T11:12:26.355Z,1010.71
2022-12-16T11:13:26.337Z,1010.74
2022-12-16T11:14:26.329Z,1010.79
2022-12-16T11:15:29.939Z,1010.81
2022-12-16T11:16:26.355Z,1010.75
2022-12-16T11:17:26.307Z,1010.84
2022-12-16T11:18:26.291Z,1010.76
2022-12-16T11:19:26.289Z,1010.74
2022-12-16T11:20:26.264Z,1010.82
2022-12-16T11:21:26.265Z,1010.75
2022-12-16T11:22:26.254Z,1010.76
2022-12-16T11:23:26.256Z,1010.76
2022-12-16T11:24:26.224Z,1010.73
2022-12-16T11:25:26.211Z,1010.71
2022-12-16T11:26:26.234Z,1010.74
2022-12-16T11:27:26.203Z,1010.72
2022-12-16T11:28:26.186Z,1010.78
2022-12-16T11:29:26.206Z,1010.75
2022-12-16T11:30:26.186Z,1010.77
2022-12-16T11:31:26.297Z,1010.71
2022-12-16T11:32:26.143Z,1010.70
2022-12-16T11:33:26.132Z,1010.77
2022-12-16T11:34:26.120Z,1010.74
2022-12-16T11:35:26.127Z,1010.79
2022-12-16T11:36:26.106Z,1010.81
2022-12-16T11:37:26.102Z,1010.81
2022-12-16T11:38:26.081Z,1010.87
2022-12-16T11:39:26.073Z,1010.88
2022-12-16T11:40:26.088Z,1010.87
2022-12-16T11:41:26.060Z,1010.90
2022-12-16T11:42:40.956Z,1010.90
2022-12-16T11:43:26.057Z,1010.91
2022-12-16T11:44:26.029Z,1010.98
2022-12-16T11:45:26.020Z,1010.91
2022-12-16T11:46:26.041Z,1010.94
2022-12-16T11:47:25.989Z,1010.94
2022-12-16T11:48:25.990Z,1010.93
2022-12-16T11:49:25.991Z,1010.95
2022-12-16T11:50:25.972Z,1010.98
2022-12-16T11:51:25.975Z,1010.96
2022-12-16T11:52:36.848Z,1010.96
2022-12-16T11:53:26.939Z,1010.93
2022-12-16T11:54:25.922Z,1010.97
2022-12-16T11:55:48.070Z,1011.01
2022-12-16T11:56:26.998Z,1011.00
2022-12-16T11:57:25.886Z,1011.02
2022-12-16T11:58:25.919Z,1011.04
2022-12-16T11:59:25.866Z,1011.07
2022-12-16T12:00:25.858Z,1011.07
2022-12-16T12:01:25.897Z,1010.98
2022-12-16T12:02:25.938Z,1010.99
2022-12-16T12:03:26.070Z,1010.95
2022-12-16T12:04:25.910Z,1010.93
2022-12-16T12:05:25.817Z,1011.00